Time;durP1;ratioP1;P1;durP2;ratioP2;P2;SDS_P1;SDS_P2;PMS_P1;PMS_P2;Temp;Humidity;BMP_temperature;BMP_pressure;BME280_temperature;BME280_humidity;BME280_pressure;Samples;Min_cycle;Max_cycle;Signal;HPM_P1;HPM_P2
2022/03/06 00:02:12;;;;;;;31.50;12.77;;;0.30;99.90;;;;;;5013497;28;20267;-80
2022/03/06 00:04:38;;;;;;;33.00;12.40;;;0.30;99.90;;;;;;5014449;28;20678;-79
2022/03/06 00:07:04;;;;;;;29.97;11.50;;;0.20;99.90;;;;;;5013555;28;20262;-78
2022/03/06 00:09:30;;;;;;;32.07;12.10;;;0.20;99.90;;;;;;5012964;28;20175;-78
2022/03/06 00:11:56;;;;;;;29.77;12.40;;;0.20;99.90;;;;;;5013692;28;20191;-78
2022/03/06 00:14:21;;;;;;;31.10;12.03;;;0.10;99.90;;;;;;5015189;28;20705;-78
2022/03/06 00:16:47;;;;;;;28.87;11.40;;;0.00;99.90;;;;;;5014036;28;20647;-78
2022/03/06 00:19:13;;;;;;;35.30;12.73;;;0.00;99.90;;;;;;5013964;28;20192;-78
2022/03/06 00:21:40;;;;;;;28.27;11.37;;;0.10;99.90;;;;;;5014021;28;20223;-79
2022/03/06 00:24:06;;;;;;;29.33;12.53;;;0.10;99.90;;;;;;5014025;28;20255;-79
2022/03/06 00:26:33;;;;;;;32.87;11.90;;;0.00;99.90;;;;;;5014572;28;20179;-78
2022/03/06 00:28:59;;;;;;;29.20;12.37;;;0.00;99.90;;;;;;5015000;28;20192;-79
2022/03/06 00:31:24;;;;;;;26.57;11.73;;;0.00;99.90;;;;;;5014405;28;20591;-80
2022/03/06 00:33:51;;;;;;;32.60;11.83;;;0.10;99.90;;;;;;5014602;28;20252;-79
2022/03/06 00:36:18;;;;;;;27.77;11.63;;;0.00;99.90;;;;;;5014174;28;20179;-80
2022/03/06 00:38:44;;;;;;;30.73;11.47;;;0.00;99.90;;;;;;5014811;28;20204;-80
2022/03/06 00:41:13;;;;;;;32.87;11.50;;;0.00;99.90;;;;;;5014407;28;20712;-80
2022/03/06 00:43:39;;;;;;;31.57;11.90;;;0.00;99.90;;;;;;5014643;28;20205;-79
2022/03/06 00:46:05;;;;;;;29.77;11.80;;;-0.10;99.90;;;;;;5014726;28;20849;-79
2022/03/06 00:48:32;;;;;;;33.50;12.03;;;-0.10;99.90;;;;;;5014632;28;20256;-79
2022/03/06 00:50:57;;;;;;;35.03;12.63;;;-0.10;99.90;;;;;;5014667;28;20173;-79
2022/03/06 00:53:23;;;;;;;35.87;12.07;;;-0.10;99.90;;;;;;5014879;28;20261;-79
2022/03/06 00:55:49;;;;;;;39.37;13.33;;;-0.20;99.90;;;;;;5014390;28;20213;-79
2022/03/06 00:58:15;;;;;;;30.83;11.50;;;-0.20;99.90;;;;;;5013708;28;20975;-79
2022/03/06 01:00:43;;;;;;;32.60;11.43;;;-0.20;99.90;;;;;;5013646;28;20635;-78
2022/03/06 01:03:11;;;;;;;32.83;11.63;;;-0.10;99.90;;;;;;5013529;28;20733;-79
2022/03/06 01:05:37;;;;;;;29.90;11.37;;;-0.10;99.90;;;;;;5013629;28;20185;-78
2022/03/06 01:08:05;;;;;;;27.87;11.53;;;-0.10;99.90;;;;;;5013980;28;20531;-78
2022/03/06 01:10:31;;;;;;;30.83;11.23;;;-0.10;99.90;;;;;;5014136;28;20175;-80
2022/03/06 01:12:57;;;;;;;30.47;10.73;;;-0.10;99.90;;;;;;5014016;28;20255;-79
2022/03/06 01:15:23;;;;;;;28.73;11.83;;;-0.10;99.90;;;;;;5015094;28;20259;-80
2022/03/06 01:17:49;;;;;;;29.40;11.13;;;-0.20;99.90;;;;;;5013674;28;20233;-80
2022/03/06 01:20:17;;;;;;;26.80;10.97;;;-0.20;99.90;;;;;;5014102;28;20278;-79
2022/03/06 01:22:43;;;;;;;28.83;11.07;;;-0.20;99.90;;;;;;5013522;28;20347;-80
2022/03/06 01:25:09;;;;;;;25.30;11.47;;;-0.20;99.90;;;;;;5013579;28;20209;-79
2022/03/06 01:27:35;;;;;;;28.07;11.20;;;-0.20;99.90;;;;;;5013864;28;20222;-80
2022/03/06 01:30:01;;;;;;;30.70;10.63;;;-0.20;99.90;;;;;;5013650;28;20171;-79
2022/03/06 01:32:26;;;;;;;28.20;11.83;;;-0.20;99.90;;;;;;5013384;28;20733;-81
2022/03/06 01:34:52;;;;;;;29.60;10.93;;;-0.20;99.90;;;;;;5013665;28;20175;-80
2022/03/06 01:37:18;;;;;;;26.27;11.03;;;-0.40;99.90;;;;;;5013760;28;20178;-79
2022/03/06 01:39:43;;;;;;;27.87;10.77;;;-0.40;99.90;;;;;;5013573;28;20178;-79
2022/03/06 01:42:09;;;;;;;31.00;12.30;;;-0.40;99.90;;;;;;5013653;28;20211;-80
2022/03/06 01:44:35;;;;;;;29.90;11.77;;;-0.50;99.90;;;;;;5013441;28;20171;-78
2022/03/06 01:47:00;;;;;;;30.67;11.60;;;-0.40;99.90;;;;;;5013336;28;20170;-78
2022/03/06 01:49:26;;;;;;;28.03;11.10;;;-0.30;99.90;;;;;;5013668;28;20224;-79
2022/03/06 01:51:52;;;;;;;29.90;11.27;;;-0.30;99.90;;;;;;5013688;28;20174;-80
2022/03/06 01:54:17;;;;;;;27.17;10.87;;;-0.40;99.90;;;;;;5013581;28;20186;-80
2022/03/06 01:56:43;;;;;;;29.87;11.13;;;-0.50;99.90;;;;;;5013638;28;20192;-80
2022/03/06 01:59:10;;;;;;;24.97;11.03;;;-0.50;99.90;;;;;;5013623;28;20195;-79
2022/03/06 02:01:36;;;;;;;26.23;11.37;;;-0.50;99.90;;;;;;5013144;28;20204;-80
2022/03/06 02:04:02;;;;;;;25.13;10.40;;;-0.50;99.90;;;;;;5013273;28;20276;-80
2022/03/06 02:06:28;;;;;;;29.90;11.30;;;-0.50;99.90;;;;;;5013674;28;20171;-79
2022/03/06 02:08:54;;;;;;;27.30;11.33;;;-0.60;99.90;;;;;;5013269;28;20194;-80
2022/03/06 02:11:22;;;;;;;25.17;11.00;;;-0.60;99.90;;;;;;5013031;28;20596;-80
2022/03/06 02:13:48;;;;;;;29.47;10.63;;;-0.60;99.90;;;;;;5015893;28;20239;-80
2022/03/06 02:16:14;;;;;;;30.50;10.53;;;-0.70;99.90;;;;;;5016358;28;20214;-79
2022/03/06 02:18:39;;;;;;;31.63;11.43;;;-0.70;99.90;;;;;;5013864;28;20194;-79
2022/03/06 02:21:11;;;;;;;25.17;11.63;;;-0.60;99.90;;;;;;5013437;28;20181;-80
2022/03/06 02:23:37;;;;;;;31.10;11.77;;;-0.70;99.90;;;;;;5013450;28;20663;-79
2022/03/06 02:26:04;;;;;;;30.33;12.20;;;-0.60;99.90;;;;;;5013587;28;20207;-80
2022/03/06 02:28:30;;;;;;;26.40;11.33;;;-0.70;99.90;;;;;;5013526;28;20209;-80
2022/03/06 02:30:56;;;;;;;32.07;11.83;;;-0.70;99.90;;;;;;5017667;28;20199;-80
2022/03/06 02:33:22;;;;;;;33.73;12.20;;;-0.80;99.90;;;;;;5021889;28;20651;-80
2022/03/06 02:35:48;;;;;;;27.13;11.63;;;-0.80;99.90;;;;;;5020330;28;20181;-80
2022/03/06 02:38:13;;;;;;;32.57;12.27;;;-0.70;99.90;;;;;;5021881;28;20213;-79
2022/03/06 02:40:43;;;;;;;31.03;11.20;;;-0.80;99.90;;;;;;5020736;28;20250;-79
2022/03/06 02:43:13;;;;;;;25.17;10.77;;;-0.80;99.90;;;;;;5015204;28;20206;-80
2022/03/06 02:45:40;;;;;;;30.47;12.50;;;-0.80;99.90;;;;;;5016689;28;20269;-81
2022/03/06 02:48:07;;;;;;;32.27;12.60;;;-0.90;99.90;;;;;;5017309;28;20194;-79
2022/03/06 02:50:36;;;;;;;32.30;13.00;;;-0.80;99.90;;;;;;5019518;28;20254;-79
2022/03/06 02:53:04;;;;;;;31.67;12.37;;;-0.80;99.90;;;;;;5018120;28;20179;-79
2022/03/06 02:55:30;;;;;;;32.37;12.13;;;-0.80;99.90;;;;;;5018417;28;20182;-80
2022/03/06 02:57:56;;;;;;;29.27;11.73;;;-0.90;99.90;;;;;;5018288;28;20191;-78
2022/03/06 03:00:23;;;;;;;32.40;12.60;;;-0.80;99.90;;;;;;5017218;28;20234;-78
2022/03/06 03:02:50;;;;;;;29.97;12.27;;;-0.90;99.90;;;;;;5014333;28;20206;-78
2022/03/06 03:05:16;;;;;;;32.63;12.67;;;-0.90;99.90;;;;;;5014564;28;20194;-78
2022/03/06 03:07:44;;;;;;;29.87;12.63;;;-0.80;99.90;;;;;;5014494;28;20674;-78
2022/03/06 03:10:12;;;;;;;32.37;13.03;;;-0.90;99.90;;;;;;5014476;28;20172;-78
2022/03/06 03:12:38;;;;;;;30.53;12.37;;;-0.90;99.90;;;;;;5014222;28;20186;-78
2022/03/06 03:15:09;;;;;;;31.07;12.93;;;-0.90;99.90;;;;;;5014970;28;20170;-78
2022/03/06 03:17:35;;;;;;;33.63;13.63;;;-0.90;99.90;;;;;;5014448;28;20287;-78
2022/03/06 03:20:01;;;;;;;36.33;14.13;;;-0.90;99.90;;;;;;5014644;28;20719;-78
2022/03/06 03:22:26;;;;;;;33.10;13.40;;;-0.90;99.90;;;;;;5014041;28;20206;-78
2022/03/06 03:24:52;;;;;;;35.83;13.70;;;-0.80;99.90;;;;;;5014524;28;20171;-78
2022/03/06 03:27:18;;;;;;;31.50;13.37;;;-0.90;99.90;;;;;;5014301;28;20194;-78
2022/03/06 03:29:44;;;;;;;37.57;14.07;;;-1.00;99.90;;;;;;5014456;28;20167;-78
2022/03/06 03:32:09;;;;;;;34.03;13.87;;;-1.00;99.90;;;;;;5014075;28;20467;-78
2022/03/06 03:34:35;;;;;;;30.43;12.37;;;-1.10;99.90;;;;;;5014118;28;20186;-78
2022/03/06 03:37:01;;;;;;;33.37;12.53;;;-1.10;99.90;;;;;;5014250;28;20181;-78
2022/03/06 03:39:27;;;;;;;37.23;13.43;;;-1.10;99.90;;;;;;5014337;28;20181;-78
2022/03/06 03:41:53;;;;;;;34.70;13.93;;;-1.20;99.90;;;;;;5014161;28;20198;-78
2022/03/06 03:44:19;;;;;;;29.87;13.23;;;-1.10;99.90;;;;;;5014224;28;20174;-78
2022/03/06 03:46:45;;;;;;;32.40;13.83;;;-1.20;99.90;;;;;;5013864;28;20536;-78
2022/03/06 03:49:11;;;;;;;35.90;14.20;;;-1.20;99.90;;;;;;5014283;28;20199;-78
2022/03/06 03:51:38;;;;;;;32.03;12.27;;;-1.10;99.90;;;;;;5013928;28;20181;-78
2022/03/06 03:54:03;;;;;;;32.40;12.83;;;-1.20;99.90;;;;;;5013815;28;20171;-78
2022/03/06 03:56:30;;;;;;;36.70;13.50;;;-1.20;99.90;;;;;;5014145;28;20482;-78
2022/03/06 03:58:55;;;;;;;33.10;13.33;;;-1.20;99.90;;;;;;5013869;28;20191;-78
2022/03/06 04:01:21;;;;;;;35.50;14.23;;;-1.10;99.90;;;;;;5015550;28;20177;-78
2022/03/06 04:03:47;;;;;;;34.67;13.57;;;-1.20;99.90;;;;;;5017953;28;20186;-78
2022/03/06 04:06:12;;;;;;;34.07;13.93;;;-1.20;99.90;;;;;;5017123;28;20549;-78
2022/03/06 04:08:38;;;;;;;34.97;13.83;;;-1.20;99.90;;;;;;5016678;28;20719;-78
2022/03/06 04:11:04;;;;;;;32.67;12.33;;;-1.20;99.90;;;;;;5015558;28;20175;-79
2022/03/06 04:13:30;;;;;;;35.63;13.83;;;-1.00;99.90;;;;;;5015541;28;20179;-79
2022/03/06 04:15:56;;;;;;;34.40;13.33;;;-1.20;99.90;;;;;;5015303;28;20591;-79
2022/03/06 04:18:22;;;;;;;36.33;13.07;;;-1.10;99.90;;;;;;5014940;28;20199;-79
2022/03/06 04:20:48;;;;;;;36.70;13.77;;;-1.20;99.90;;;;;;5015203;28;20662;-80
2022/03/06 04:23:13;;;;;;;32.87;12.77;;;-1.20;99.90;;;;;;5014739;28;20217;-80
2022/03/06 04:25:40;;;;;;;35.13;13.73;;;-1.20;99.90;;;;;;5014506;28;20183;-80
2022/03/06 04:28:06;;;;;;;34.60;14.13;;;-1.30;99.90;;;;;;5014540;28;20286;-79
2022/03/06 04:30:32;;;;;;;35.53;13.63;;;-1.30;99.90;;;;;;5014732;28;20171;-79
2022/03/06 04:32:58;;;;;;;36.33;14.27;;;-1.40;99.90;;;;;;5014381;28;20236;-80
2022/03/06 04:35:23;;;;;;;35.33;14.07;;;-1.30;99.90;;;;;;5014676;28;20266;-79
2022/03/06 04:37:49;;;;;;;35.50;13.80;;;-1.30;99.90;;;;;;5014820;28;20758;-79
2022/03/06 04:40:15;;;;;;;36.00;13.47;;;-1.30;99.90;;;;;;5014727;28;20194;-79
2022/03/06 04:42:41;;;;;;;36.27;14.10;;;-1.20;99.90;;;;;;5014308;28;20190;-79
2022/03/06 04:45:08;;;;;;;33.93;13.50;;;-1.30;99.90;;;;;;5014226;28;20261;-79
2022/03/06 04:47:34;;;;;;;30.13;12.93;;;-1.40;99.90;;;;;;5014416;28;20198;-80
2022/03/06 04:50:00;;;;;;;32.03;13.17;;;-1.40;99.90;;;;;;5014174;28;20175;-79
2022/03/06 04:52:25;;;;;;;31.43;13.60;;;-1.50;99.90;;;;;;5015470;28;20265;-78
2022/03/06 04:54:51;;;;;;;37.10;14.27;;;-1.40;99.90;;;;;;5016712;28;20198;-78
2022/03/06 04:57:17;;;;;;;34.77;13.87;;;-1.40;99.90;;;;;;5016112;28;20253;-78
2022/03/06 04:59:42;;;;;;;36.67;14.40;;;-1.50;99.90;;;;;;5016099;28;20253;-78
2022/03/06 05:02:09;;;;;;;36.47;14.27;;;-1.50;99.90;;;;;;5013605;28;20213;-78
2022/03/06 05:04:35;;;;;;;38.67;14.27;;;-1.60;99.90;;;;;;5013579;28;20190;-78
2022/03/06 05:07:00;;;;;;;36.97;14.03;;;-1.60;99.90;;;;;;5013938;28;20232;-78
2022/03/06 05:09:27;;;;;;;35.67;14.80;;;-1.60;99.90;;;;;;5013306;28;20195;-78
2022/03/06 05:11:52;;;;;;;36.30;13.83;;;-1.50;99.90;;;;;;5011441;28;20265;-78
2022/03/06 05:14:18;;;;;;;37.27;15.00;;;-1.60;99.90;;;;;;5011863;28;20270;-78
2022/03/06 05:16:44;;;;;;;38.73;14.93;;;-1.50;99.90;;;;;;5012071;28;20574;-78
2022/03/06 05:19:10;;;;;;;35.90;14.00;;;-1.50;99.90;;;;;;5011925;28;20230;-78
2022/03/06 05:21:36;;;;;;;41.40;15.83;;;-1.50;99.90;;;;;;5011656;28;20178;-79
2022/03/06 05:24:04;;;;;;;35.30;14.43;;;-1.60;99.90;;;;;;4995846;28;20289;-79
2022/03/06 05:26:30;;;;;;;40.27;15.00;;;-1.70;99.90;;;;;;5011896;28;20178;-78
2022/03/06 05:28:55;;;;;;;40.70;15.43;;;-1.70;99.90;;;;;;5011699;28;20202;-79
2022/03/06 05:31:21;;;;;;;36.27;14.37;;;-1.60;99.90;;;;;;5011939;28;20183;-80
2022/03/06 05:33:47;;;;;;;43.33;14.93;;;-1.60;99.90;;;;;;5012920;28;20170;-78
2022/03/06 05:36:12;;;;;;;46.37;15.33;;;-1.70;99.90;;;;;;5011747;28;20808;-78
2022/03/06 05:38:38;;;;;;;37.47;15.33;;;-1.70;99.90;;;;;;5011751;28;20210;-79
2022/03/06 05:41:04;;;;;;;41.90;15.03;;;-1.60;99.90;;;;;;5011600;28;20198;-79
2022/03/06 05:43:29;;;;;;;39.10;14.13;;;-1.70;99.90;;;;;;5011506;28;20671;-79
2022/03/06 05:45:55;;;;;;;39.70;15.07;;;-1.80;99.90;;;;;;5011693;28;20179;-79
2022/03/06 05:48:21;;;;;;;42.77;14.80;;;-1.80;99.90;;;;;;5011394;28;20205;-79
2022/03/06 05:50:47;;;;;;;41.97;15.17;;;-1.80;99.90;;;;;;5011751;28;20174;-79
2022/03/06 05:53:13;;;;;;;41.50;14.67;;;-1.80;99.90;;;;;;5012087;28;20651;-79
2022/03/06 05:55:39;;;;;;;43.40;14.60;;;-1.80;99.90;;;;;;5012016;28;20178;-78
2022/03/06 05:58:05;;;;;;;42.13;14.70;;;-1.80;99.90;;;;;;5011135;28;20252;-78
2022/03/06 06:00:31;;;;;;;41.90;15.37;;;-1.80;99.90;;;;;;5011302;28;20174;-78
2022/03/06 06:02:57;;;;;;;42.50;15.43;;;-1.80;99.90;;;;;;5010881;28;20213;-78
2022/03/06 06:05:23;;;;;;;38.43;15.23;;;-1.70;99.90;;;;;;5011480;28;20285;-78
2022/03/06 06:07:52;;;;;;;35.53;14.00;;;-1.70;99.90;;;;;;5011900;28;20201;-78
2022/03/06 06:10:18;;;;;;;35.27;14.70;;;-1.70;99.90;;;;;;5012006;28;20225;-78
2022/03/06 06:12:45;;;;;;;38.53;14.60;;;-1.70;99.90;;;;;;5011444;28;20202;-78
2022/03/06 06:15:11;;;;;;;38.17;14.30;;;-1.70;99.90;;;;;;5011601;28;20210;-79
2022/03/06 06:17:37;;;;;;;37.70;14.57;;;-1.70;99.90;;;;;;5010987;28;20568;-79
2022/03/06 06:20:05;;;;;;;42.27;15.57;;;-1.60;99.90;;;;;;5011108;28;20572;-78
2022/03/06 06:22:32;;;;;;;38.23;15.13;;;-1.50;99.90;;;;;;5010070;28;20256;-78
2022/03/06 06:24:58;;;;;;;35.33;13.77;;;-1.50;99.90;;;;;;5010874;28;20257;-78
2022/03/06 06:27:24;;;;;;;42.57;15.13;;;-1.60;99.90;;;;;;5010792;28;20611;-78
2022/03/06 06:29:50;;;;;;;39.70;15.10;;;-1.50;99.90;;;;;;5010960;28;20297;-78
2022/03/06 06:32:16;;;;;;;35.63;15.20;;;-1.50;99.90;;;;;;5010349;28;20608;-79
2022/03/06 06:34:41;;;;;;;37.53;15.07;;;-1.30;99.90;;;;;;5010929;28;20546;-78
2022/03/06 06:37:08;;;;;;;34.03;14.70;;;-1.30;99.90;;;;;;5010756;28;20189;-78
2022/03/06 06:39:34;;;;;;;36.07;14.03;;;-1.30;99.90;;;;;;5010781;28;20178;-78
2022/03/06 06:42:03;;;;;;;37.33;14.37;;;-1.20;99.90;;;;;;5010492;28;20217;-79
2022/03/06 06:44:29;;;;;;;39.77;14.40;;;-1.20;99.90;;;;;;5010817;28;20225;-78
2022/03/06 06:46:55;;;;;;;34.57;14.37;;;-1.10;99.90;;;;;;5010769;28;20333;-79
2022/03/06 06:49:20;;;;;;;33.43;14.70;;;-1.00;99.90;;;;;;5010661;28;20381;-79
2022/03/06 06:51:46;;;;;;;35.97;14.17;;;-0.90;99.90;;;;;;5010719;28;20175;-78
2022/03/06 06:54:13;;;;;;;31.67;14.43;;;-0.70;99.90;;;;;;5010043;28;20179;-78
2022/03/06 06:56:39;;;;;;;33.30;13.83;;;-0.60;99.90;;;;;;5010983;28;20646;-79
2022/03/06 06:59:05;;;;;;;31.90;14.07;;;-0.40;99.90;;;;;;5010673;28;20212;-78
2022/03/06 07:01:30;;;;;;;31.90;14.17;;;-0.40;99.90;;;;;;5010090;28;20258;-78
2022/03/06 07:03:56;;;;;;;29.73;14.07;;;-0.40;99.90;;;;;;5010679;28;20195;-78
2022/03/06 07:06:22;;;;;;;34.77;14.37;;;-0.20;99.90;;;;;;5011074;28;20246;-78
2022/03/06 07:08:48;;;;;;;27.67;13.37;;;0.10;99.90;;;;;;5011766;28;20197;-79
2022/03/06 07:11:13;;;;;;;26.27;13.17;;;0.70;99.90;;;;;;5010521;28;20183;-78
2022/03/06 07:13:39;;;;;;;31.60;13.47;;;1.30;99.90;;;;;;5010695;28;20244;-78
2022/03/06 07:16:05;;;;;;;26.83;13.50;;;1.30;99.90;;;;;;5010512;28;20179;-78
2022/03/06 07:18:30;;;;;;;26.17;12.37;;;1.20;99.90;;;;;;5010492;28;20567;-78
2022/03/06 07:20:56;;;;;;;24.50;13.13;;;1.70;99.90;;;;;;5010406;28;20218;-78
2022/03/06 07:23:22;;;;;;;26.73;11.97;;;2.50;99.90;;;;;;5010168;28;20290;-78
2022/03/06 07:25:47;;;;;;;25.03;11.97;;;2.60;99.40;;;;;;5011696;28;20506;-78
2022/03/06 07:28:14;;;;;;;25.40;12.30;;;2.80;99.30;;;;;;5010441;28;20187;-78
2022/03/06 07:30:39;;;;;;;24.67;12.10;;;3.80;97.90;;;;;;5010646;28;20199;-78
2022/03/06 07:33:05;;;;;;;22.33;12.00;;;4.90;95.10;;;;;;5010145;28;20181;-77
2022/03/06 07:35:32;;;;;;;20.83;10.93;;;5.30;93.30;;;;;;5013752;28;20181;-78
2022/03/06 07:37:58;;;;;;;20.63;11.50;;;5.80;92.50;;;;;;5013692;28;20196;-78
2022/03/06 07:40:24;;;;;;;19.80;11.47;;;5.70;93.10;;;;;;5014177;28;20179;-79
2022/03/06 07:42:50;;;;;;;19.17;11.13;;;5.20;93.60;;;;;;5013982;28;20252;-78
2022/03/06 07:45:17;;;;;;;17.57;10.97;;;6.00;91.90;;;;;;5014293;28;20178;-79
2022/03/06 07:47:43;;;;;;;20.90;11.27;;;6.70;90.80;;;;;;5014912;28;20195;-79
2022/03/06 07:50:12;;;;;;;26.53;11.77;;;6.70;90.80;;;;;;5015841;28;20265;-79
2022/03/06 07:52:38;;;;;;;21.23;11.23;;;6.90;90.30;;;;;;5016032;28;20225;-79
2022/03/06 07:55:06;;;;;;;22.17;11.43;;;7.00;88.80;;;;;;5016311;28;20183;-79
2022/03/06 07:57:31;;;;;;;20.10;10.80;;;6.80;90.20;;;;;;5016352;28;20602;-79
2022/03/06 07:59:57;;;;;;;17.20;10.63;;;7.00;89.20;;;;;;5017382;28;20273;-79
2022/03/06 08:02:23;;;;;;;20.27;9.47;;;7.10;90.20;;;;;;5017536;28;20206;-79
2022/03/06 08:04:48;;;;;;;18.73;9.93;;;6.40;91.40;;;;;;5015962;28;20835;-79
2022/03/06 08:07:14;;;;;;;17.33;10.13;;;7.00;90.20;;;;;;5015686;28;20178;-80
2022/03/06 08:09:39;;;;;;;18.60;9.80;;;7.00;89.00;;;;;;5015448;28;20189;-79
2022/03/06 08:12:06;;;;;;;18.00;9.50;;;7.30;89.30;;;;;;5019375;28;20194;-79
2022/03/06 08:14:32;;;;;;;19.17;9.73;;;6.20;90.90;;;;;;5020600;28;20551;-80
2022/03/06 08:16:58;;;;;;;17.57;9.80;;;5.70;92.60;;;;;;5021573;28;20178;-80
2022/03/06 08:19:24;;;;;;;15.83;9.23;;;5.50;93.40;;;;;;5022072;28;20639;-79
2022/03/06 08:21:49;;;;;;;17.40;9.50;;;5.40;94.40;;;;;;5016959;28;20211;-79
2022/03/06 08:24:16;;;;;;;17.53;8.87;;;5.40;93.50;;;;;;5018473;28;20224;-79
2022/03/06 08:26:42;;;;;;;19.33;9.27;;;5.70;93.70;;;;;;5019943;28;20234;-79
2022/03/06 08:29:07;;;;;;;19.93;8.93;;;5.50;92.80;;;;;;5021939;28;20281;-79
2022/03/06 08:31:33;;;;;;;16.27;9.10;;;5.80;93.50;;;;;;5019714;28;20788;-79
2022/03/06 08:33:59;;;;;;;18.40;9.10;;;6.10;92.10;;;;;;5016505;28;20636;-79
2022/03/06 08:36:24;;;;;;;16.13;9.13;;;6.40;91.10;;;;;;5018246;28;20713;-78
2022/03/06 08:38:50;;;;;;;21.43;9.60;;;6.80;92.30;;;;;;5018661;28;20224;-78
2022/03/06 08:41:16;;;;;;;15.70;9.10;;;6.10;92.20;;;;;;5015801;28;20178;-78
2022/03/06 08:43:42;;;;;;;18.57;9.40;;;5.90;92.70;;;;;;5015185;28;20227;-78
2022/03/06 08:46:07;;;;;;;18.83;10.03;;;5.80;93.40;;;;;;5016029;28;20197;-78
2022/03/06 08:48:36;;;;;;;16.33;9.03;;;5.50;92.90;;;;;;5016572;28;20213;-78
2022/03/06 08:51:04;;;;;;;18.53;9.33;;;5.90;93.00;;;;;;5017073;28;20912;-78
2022/03/06 08:53:31;;;;;;;15.53;9.17;;;5.60;93.10;;;;;;5019246;28;20204;-78
2022/03/06 08:55:57;;;;;;;17.87;9.30;;;6.40;92.60;;;;;;5015801;28;20264;-77
2022/03/06 08:58:23;;;;;;;17.93;9.33;;;6.70;91.40;;;;;;5011706;28;20206;-77
2022/03/06 09:00:48;;;;;;;16.67;8.73;;;6.90;91.40;;;;;;5013604;28;20220;-77
2022/03/06 09:03:14;;;;;;;16.47;8.83;;;6.60;91.60;;;;;;5010457;28;20189;-78
2022/03/06 09:05:40;;;;;;;23.57;9.80;;;6.50;92.60;;;;;;5012917;28;20189;-77
2022/03/06 09:08:10;;;;;;;16.13;8.70;;;6.80;91.70;;;;;;5012162;28;20197;-77
2022/03/06 09:10:40;;;;;;;16.33;9.17;;;6.40;91.30;;;;;;5009375;28;20555;-77
2022/03/06 09:13:07;;;;;;;18.27;9.53;;;5.70;93.00;;;;;;5012819;28;20664;-77
2022/03/06 09:15:34;;;;;;;23.17;10.17;;;6.20;92.50;;;;;;5012419;28;20177;-78
2022/03/06 09:17:59;;;;;;;23.47;9.53;;;6.30;92.20;;;;;;5011329;28;20574;-77
2022/03/06 09:20:26;;;;;;;22.97;9.70;;;6.80;92.00;;;;;;5010968;28;20188;-77
2022/03/06 09:22:53;;;;;;;17.67;9.43;;;7.30;91.00;;;;;;5011366;28;20205;-77
2022/03/06 09:25:18;;;;;;;20.80;9.70;;;7.50;90.70;;;;;;5011915;28;20314;-77
2022/03/06 09:27:45;;;;;;;24.37;9.67;;;7.30;91.40;;;;;;5011880;28;20228;-77
2022/03/06 09:30:11;;;;;;;23.47;9.10;;;7.30;91.50;;;;;;5013659;28;20176;-77
2022/03/06 09:32:38;;;;;;;21.10;9.20;;;6.50;91.50;;;;;;5013253;28;20269;-77
2022/03/06 09:35:04;;;;;;;17.13;8.63;;;6.40;91.80;;;;;;5014081;28;20175;-78
2022/03/06 09:37:30;;;;;;;21.80;9.77;;;6.10;91.70;;;;;;5012900;28;20290;-78
2022/03/06 09:39:55;;;;;;;20.20;9.93;;;6.50;92.00;;;;;;5013759;28;20205;-78
2022/03/06 09:42:21;;;;;;;26.17;9.90;;;6.90;90.80;;;;;;5014986;28;20199;-78
2022/03/06 09:44:48;;;;;;;18.70;8.83;;;7.10;91.20;;;;;;5013744;28;20242;-78
2022/03/06 09:47:15;;;;;;;21.93;9.20;;;7.80;90.90;;;;;;5012289;28;20593;-78
2022/03/06 09:49:46;;;;;;;17.77;8.77;;;8.20;89.00;;;;;;5012503;28;20175;-77
2022/03/06 09:52:12;;;;;;;17.93;8.53;;;7.90;89.00;;;;;;5012954;28;20801;-78
2022/03/06 09:54:38;;;;;;;17.83;8.37;;;7.30;90.40;;;;;;5013439;28;20183;-77
2022/03/06 09:57:04;;;;;;;16.43;8.53;;;7.30;89.90;;;;;;5013329;28;20701;-77
2022/03/06 09:59:31;;;;;;;20.13;8.50;;;7.10;90.30;;;;;;5013160;28;20675;-78
2022/03/06 10:02:04;;;;;;;16.67;9.13;;;7.00;90.40;;;;;;5012934;28;20202;-77
2022/03/06 10:04:32;;;;;;;15.20;8.80;;;7.30;90.20;;;;;;5014113;28;20192;-78
2022/03/06 10:07:03;;;;;;;17.47;8.20;;;7.60;91.00;;;;;;5011016;28;20197;-78
2022/03/06 10:09:31;;;;;;;16.73;8.67;;;8.10;89.30;;;;;;5011115;28;20171;-77
2022/03/06 10:11:57;;;;;;;13.67;7.83;;;8.20;89.50;;;;;;5011020;28;20702;-78
2022/03/06 10:14:41;;;;;;;16.40;7.87;;;8.30;88.20;;;;;;5010289;28;20686;-78
2022/03/06 10:17:13;;;;;;;15.10;8.03;;;7.90;88.10;;;;;;5010351;28;20187;-78
2022/03/06 10:19:59;;;;;;;14.10;8.37;;;7.70;88.60;;;;;;5011124;28;20175;-77
2022/03/06 10:22:33;;;;;;;14.80;8.83;;;8.40;86.40;;;;;;5010751;28;20242;-77
2022/03/06 10:25:07;;;;;;;17.80;8.03;;;8.20;89.40;;;;;;5012285;28;20258;-77
2022/03/06 10:27:48;;;;;;;16.23;7.63;;;8.20;87.90;;;;;;5011192;28;20233;-78
2022/03/06 10:30:31;;;;;;;11.13;7.80;;;8.40;87.70;;;;;;5011086;28;20177;-77
2022/03/06 10:32:59;;;;;;;14.23;7.97;;;8.50;86.10;;;;;;5010815;28;20175;-77
2022/03/06 10:35:37;;;;;;;10.97;6.97;;;7.80;86.80;;;;;;5010928;28;20174;-77
2022/03/06 10:38:20;;;;;;;14.37;7.47;;;7.90;87.30;;;;;;5010853;28;20248;-77
2022/03/06 10:40:45;;;;;;;11.93;7.30;;;7.80;86.70;;;;;;5010850;28;20224;-78
2022/03/06 10:43:28;;;;;;;12.63;7.60;;;7.60;85.70;;;;;;5010398;28;20695;-77
2022/03/06 10:46:15;;;;;;;12.50;7.27;;;7.60;86.40;;;;;;5010823;28;20164;-77
2022/03/06 10:48:43;;;;;;;13.77;7.40;;;8.50;85.10;;;;;;5010862;28;20194;-78
2022/03/06 10:51:12;;;;;;;10.47;6.13;;;7.50;87.20;;;;;;5010471;28;20172;-77
2022/03/06 10:53:38;;;;;;;13.20;7.07;;;7.60;83.50;;;;;;5010696;28;20225;-77
2022/03/06 10:56:13;;;;;;;13.60;7.40;;;7.10;84.10;;;;;;5010541;28;20170;-77
2022/03/06 10:58:42;;;;;;;9.67;6.43;;;7.30;83.20;;;;;;5010638;28;20671;-77
2022/03/06 11:01:07;;;;;;;13.93;6.73;;;7.40;82.10;;;;;;5010697;28;20186;-77
2022/03/06 11:03:35;;;;;;;12.43;6.97;;;6.90;81.50;;;;;;5010758;28;20611;-78
2022/03/06 11:06:05;;;;;;;11.93;6.83;;;7.10;81.80;;;;;;5010821;28;20182;-78
2022/03/06 11:08:32;;;;;;;12.17;6.10;;;7.20;83.10;;;;;;5011572;28;20683;-77
2022/03/06 11:10:58;;;;;;;11.97;6.33;;;7.10;77.80;;;;;;5016429;28;20262;-77
2022/03/06 11:13:26;;;;;;;10.70;6.63;;;8.00;77.10;;;;;;5016361;28;20239;-77
2022/03/06 11:15:52;;;;;;;9.57;5.80;;;8.20;77.50;;;;;;5014540;28;20551;-79
2022/03/06 11:18:19;;;;;;;13.83;6.77;;;8.30;75.60;;;;;;5014124;28;20208;-78
2022/03/06 11:20:46;;;;;;;11.43;6.97;;;8.00;74.60;;;;;;5014111;28;20290;-77
2022/03/06 11:23:36;;;;;;;13.87;6.53;;;7.60;77.00;;;;;;5013831;28;20195;-77
2022/03/06 11:26:05;;;;;;;10.20;6.57;;;8.10;74.70;;;;;;5015953;28;20167;-77
2022/03/06 11:28:58;;;;;;;11.33;6.10;;;7.60;76.00;;;;;;5018305;28;20247;-77
2022/03/06 11:31:24;;;;;;;16.70;6.93;;;8.00;72.40;;;;;;5017165;28;20167;-77
2022/03/06 11:34:04;;;;;;;10.77;5.80;;;8.10;72.90;;;;;;5016662;28;20175;-77
2022/03/06 11:36:30;;;;;;;9.47;5.63;;;7.80;74.30;;;;;;5016057;28;20619;-77
2022/03/06 11:38:56;;;;;;;9.23;5.53;;;7.10;72.50;;;;;;5015337;28;20199;-77
2022/03/06 11:41:25;;;;;;;9.37;5.63;;;6.70;72.80;;;;;;5016155;28;20242;-77
2022/03/06 11:43:51;;;;;;;9.93;5.57;;;7.20;72.40;;;;;;5016854;28;20246;-77
2022/03/06 11:46:25;;;;;;;12.40;6.47;;;7.00;72.40;;;;;;5018028;28;20171;-77
2022/03/06 11:48:50;;;;;;;9.27;5.47;;;6.60;74.70;;;;;;5016136;28;20198;-77
2022/03/06 11:51:17;;;;;;;11.30;5.73;;;6.50;76.10;;;;;;5014950;28;20173;-77
2022/03/06 11:53:56;;;;;;;13.47;6.60;;;6.00;75.50;;;;;;5015434;28;20171;-77
2022/03/06 11:56:39;;;;;;;10.37;5.63;;;6.00;76.90;;;;;;5016418;28;20185;-77
2022/03/06 11:59:10;;;;;;;9.27;5.73;;;6.10;76.60;;;;;;5018288;28;20653;-77
2022/03/06 12:01:44;;;;;;;11.70;5.63;;;6.20;75.40;;;;;;5016927;28;20266;-77
2022/03/06 12:04:12;;;;;;;8.60;5.90;;;6.10;74.30;;;;;;5016948;28;20709;-77
2022/03/06 12:06:39;;;;;;;9.93;6.00;;;6.70;74.30;;;;;;5018609;28;20641;-78
2022/03/06 12:09:15;;;;;;;11.10;6.47;;;7.30;75.50;;;;;;5017674;28;20565;-77
2022/03/06 12:11:41;;;;;;;8.83;5.30;;;7.60;75.40;;;;;;5015044;28;20258;-77
2022/03/06 12:14:19;;;;;;;9.87;5.47;;;7.20;73.70;;;;;;5014854;28;20649;-77
2022/03/06 12:17:10;;;;;;;10.27;5.83;;;6.80;75.70;;;;;;5014557;28;20175;-77
2022/03/06 12:19:42;;;;;;;8.17;5.30;;;7.30;76.50;;;;;;5012485;28;20185;-77
2022/03/06 12:22:16;;;;;;;12.80;5.90;;;7.50;75.40;;;;;;5012247;28;20208;-77
2022/03/06 12:24:45;;;;;;;12.53;5.77;;;6.80;76.30;;;;;;5012957;28;20313;-77
2022/03/06 12:27:17;;;;;;;10.47;5.93;;;7.40;75.50;;;;;;5012876;28;20179;-78
2022/03/06 12:29:46;;;;;;;11.83;5.73;;;7.10;75.60;;;;;;5012859;28;20179;-79
2022/03/06 12:32:27;;;;;;;11.53;5.37;;;6.90;73.50;;;;;;5013063;28;20563;-77
2022/03/06 12:34:57;;;;;;;10.70;5.13;;;7.50;76.10;;;;;;5012919;28;20179;-77
2022/03/06 12:37:24;;;;;;;7.80;5.00;;;7.90;74.00;;;;;;5012941;28;20202;-77